createdAt,value
2019-01-21T00:00:45.856Z,27.30
2019-01-21T00:03:15.119Z,29.93
2019-01-21T00:05:44.377Z,29.67
2019-01-21T00:08:13.742Z,29.17
2019-01-21T00:10:42.998Z,30.33
2019-01-21T00:13:12.234Z,31.50
2019-01-21T00:15:41.472Z,30.27
2019-01-21T00:18:10.796Z,30.17
2019-01-21T00:20:40.032Z,31.33
2019-01-21T00:23:09.290Z,30.43
2019-01-21T00:25:38.531Z,29.83
2019-01-21T00:28:07.786Z,29.40
2019-01-21T00:30:37.039Z,31.53
2019-01-21T00:33:06.303Z,30.43
2019-01-21T00:35:35.555Z,30.73
2019-01-21T00:38:05.163Z,28.83
2019-01-21T00:40:34.394Z,30.50
2019-01-21T00:43:03.653Z,31.93
2019-01-21T00:45:32.891Z,29.63
2019-01-21T00:48:02.171Z,30.93
2019-01-21T00:50:31.327Z,31.37
2019-01-21T00:53:00.506Z,28.63
2019-01-21T00:55:29.752Z,33.07
2019-01-21T00:57:58.950Z,33.63
2019-01-21T01:00:28.483Z,34.57
2019-01-21T01:02:57.769Z,32.77
2019-01-21T01:05:27.011Z,30.27
2019-01-21T01:07:56.273Z,31.10
2019-01-21T01:10:25.507Z,31.93
2019-01-21T01:12:54.795Z,31.87
2019-01-21T01:15:23.979Z,32.40
2019-01-21T01:17:53.222Z,31.93
2019-01-21T01:20:22.825Z,30.93
2019-01-21T01:22:52.012Z,29.60
2019-01-21T01:25:21.250Z,31.20
2019-01-21T01:27:50.509Z,32.73
2019-01-21T01:30:19.664Z,31.17
2019-01-21T01:32:48.976Z,32.00
2019-01-21T01:35:18.179Z,32.63
2019-01-21T01:37:47.595Z,35.93
2019-01-21T01:40:18.947Z,34.43
2019-01-21T01:42:48.626Z,32.60
2019-01-21T01:45:26.234Z,31.40
2019-01-21T01:48:01.899Z,32.33
2019-01-21T01:50:31.407Z,32.70
2019-01-21T01:53:01.188Z,33.33
2019-01-21T01:55:32.047Z,30.80
2019-01-21T01:58:02.870Z,34.13
2019-01-21T02:00:32.213Z,33.70
2019-01-21T02:03:01.478Z,32.43
2019-01-21T02:05:30.678Z,32.00
2019-01-21T02:07:59.902Z,33.17
2019-01-21T02:10:29.544Z,31.30
2019-01-21T02:12:58.859Z,31.57
2019-01-21T02:15:28.070Z,31.80
2019-01-21T02:17:57.390Z,31.40
2019-01-21T02:20:26.660Z,31.43
2019-01-21T02:22:59.159Z,31.90
2019-01-21T02:25:44.095Z,32.60
2019-01-21T02:28:23.406Z,33.07
2019-01-21T02:31:38.778Z,32.83
2019-01-21T02:34:47.559Z,33.53
2019-01-21T02:37:52.940Z,33.20
2019-01-21T02:40:52.946Z,31.93
2019-01-21T02:44:05.551Z,32.00
2019-01-21T02:47:17.939Z,31.90
2019-01-21T02:50:26.435Z,34.43
2019-01-21T02:53:28.870Z,33.30
2019-01-21T02:56:24.768Z,32.13
2019-01-21T02:59:50.195Z,32.90
2019-01-21T03:03:09.286Z,30.90
2019-01-21T03:06:05.198Z,32.93
2019-01-21T03:09:15.339Z,30.47
2019-01-21T03:12:20.411Z,32.73
2019-01-21T03:15:14.719Z,31.97
2019-01-21T03:18:09.784Z,33.47
2019-01-21T03:21:31.423Z,32.97
2019-01-21T03:24:38.085Z,33.87
2019-01-21T03:27:52.505Z,31.20
2019-01-21T03:31:13.288Z,32.23
2019-01-21T03:34:32.871Z,34.73
2019-01-21T03:37:50.612Z,35.43
2019-01-21T03:40:50.275Z,32.10
2019-01-21T03:43:52.352Z,32.80
2019-01-21T03:46:48.827Z,33.40
2019-01-21T03:49:25.603Z,32.13
2019-01-21T03:52:35.210Z,32.37
2019-01-21T03:55:09.428Z,33.00
2019-01-21T03:57:59.354Z,31.20
2019-01-21T04:01:09.084Z,31.03
2019-01-21T04:04:13.927Z,31.13
2019-01-21T04:06:54.575Z,31.07
2019-01-21T04:09:54.688Z,36.10
2019-01-21T04:12:53.318Z,31.97
2019-01-21T04:15:57.095Z,32.37
2019-01-21T04:19:04.343Z,31.50
2019-01-21T04:22:13.437Z,31.23
2019-01-21T04:25:42.394Z,29.67
2019-01-21T04:28:43.712Z,29.97
2019-01-21T04:31:39.210Z,30.83
2019-01-21T04:34:37.109Z,31.63
2019-01-21T04:37:42.093Z,31.90
2019-01-21T04:40:29.852Z,30.57
2019-01-21T04:43:33.854Z,30.47
2019-01-21T04:46:21.096Z,31.93
2019-01-21T04:49:04.913Z,30.40
2019-01-21T04:52:21.437Z,30.00
2019-01-21T04:55:41.207Z,29.07
2019-01-21T04:58:52.882Z,30.23
2019-01-21T05:02:06.029Z,29.53
2019-01-21T05:05:23.925Z,28.53
2019-01-21T05:08:46.652Z,29.67
2019-01-21T05:11:41.030Z,30.17
2019-01-21T05:15:03.076Z,28.87
2019-01-21T05:18:17.104Z,29.20
2019-01-21T05:21:17.440Z,31.63
2019-01-21T05:24:28.281Z,29.60
2019-01-21T05:27:18.574Z,27.93
2019-01-21T05:30:34.888Z,30.80
2019-01-21T05:33:40.519Z,28.33
2019-01-21T05:36:25.004Z,29.27
2019-01-21T05:39:16.062Z,29.83
2019-01-21T05:42:40.146Z,28.00
2019-01-21T05:45:59.499Z,28.30
2019-01-21T05:49:28.508Z,28.70
2019-01-21T05:52:44.927Z,29.37
2019-01-21T05:56:01.297Z,29.30
2019-01-21T05:59:16.849Z,28.83
2019-01-21T06:02:33.223Z,28.40
2019-01-21T06:05:39.168Z,29.33
2019-01-21T06:08:53.056Z,29.30
2019-01-21T06:11:50.510Z,25.87
2019-01-21T06:15:13.263Z,28.27
2019-01-21T06:17:57.800Z,28.30
2019-01-21T06:20:57.599Z,27.57
2019-01-21T06:23:37.465Z,25.40
2019-01-21T06:26:52.099Z,28.43
2019-01-21T06:29:40.598Z,27.63
2019-01-21T06:32:33.826Z,27.83
2019-01-21T06:35:44.265Z,31.33
2019-01-21T06:39:05.666Z,30.00
2019-01-21T06:42:11.294Z,28.30
2019-01-21T06:45:01.861Z,27.37
2019-01-21T06:48:07.394Z,26.20
2019-01-21T06:51:03.422Z,26.07
2019-01-21T06:54:07.356Z,27.13
2019-01-21T06:57:12.698Z,25.37
2019-01-21T07:00:35.011Z,26.13
2019-01-21T07:03:48.793Z,25.17
2019-01-21T07:06:56.246Z,26.63
2019-01-21T07:09:52.104Z,24.63
2019-01-21T07:13:11.970Z,26.53
2019-01-21T07:16:29.334Z,27.33
2019-01-21T07:19:39.591Z,26.87
2019-01-21T07:22:33.508Z,25.30
2019-01-21T07:25:34.648Z,25.70
2019-01-21T07:28:15.443Z,27.67
2019-01-21T07:31:18.029Z,26.00
2019-01-21T07:34:32.687Z,26.40
2019-01-21T07:37:15.202Z,25.80
2019-01-21T07:40:14.187Z,24.73
2019-01-21T07:43:39.067Z,25.60
2019-01-21T07:46:51.157Z,25.17
2019-01-21T07:49:49.919Z,26.33
2019-01-21T07:52:47.171Z,24.97
2019-01-21T07:55:50.872Z,25.87
2019-01-21T07:58:53.988Z,25.17
2019-01-21T08:01:38.621Z,24.10
2019-01-21T08:04:45.335Z,24.17
2019-01-21T08:07:39.711Z,25.03
2019-01-21T08:11:00.896Z,30.27
2019-01-21T08:14:00.993Z,29.70
2019-01-21T08:17:10.217Z,28.03
2019-01-21T08:20:15.003Z,25.53
2019-01-21T08:23:46.800Z,26.90
2019-01-21T08:26:48.287Z,24.30
2019-01-21T08:29:55.662Z,22.60
2019-01-21T08:32:51.523Z,21.50
2019-01-21T08:35:41.091Z,25.37
2019-01-21T08:38:39.632Z,26.70
2019-01-21T08:41:55.855Z,28.80
2019-01-21T08:45:18.482Z,27.93
2019-01-21T08:48:30.613Z,30.37
2019-01-21T08:51:10.262Z,31.37
2019-01-21T08:53:50.515Z,29.07
2019-01-21T08:56:49.394Z,31.73
2019-01-21T08:59:58.959Z,26.37
2019-01-21T09:03:00.205Z,26.23
2019-01-21T09:06:10.696Z,28.93
2019-01-21T09:09:19.974Z,26.43
2019-01-21T09:12:18.627Z,27.43
2019-01-21T09:15:34.714Z,25.97
2019-01-21T09:18:38.680Z,26.57
2019-01-21T09:21:44.108Z,26.93
2019-01-21T09:24:45.086Z,26.87
2019-01-21T09:27:48.734Z,28.00
2019-01-21T09:30:43.238Z,27.97
2019-01-21T09:34:11.539Z,27.77
2019-01-21T09:36:53.219Z,28.90
2019-01-21T09:40:04.198Z,30.67
2019-01-21T09:42:57.318Z,35.20
2019-01-21T09:45:53.682Z,33.37
2019-01-21T09:48:21.426Z,35.53
2019-01-21T09:50:51.177Z,38.43
2019-01-21T09:53:20.766Z,34.73
2019-01-21T09:55:52.442Z,32.47
2019-01-21T09:58:24.799Z,34.37
2019-01-21T10:00:54.485Z,33.43
2019-01-21T10:03:24.462Z,32.37
2019-01-21T10:05:58.278Z,35.03
2019-01-21T10:08:51.126Z,34.90
2019-01-21T10:11:56.651Z,32.97
2019-01-21T10:14:53.330Z,35.00
2019-01-21T10:18:12.550Z,33.93
2019-01-21T10:21:14.333Z,33.93
2019-01-21T10:24:18.930Z,35.53
2019-01-21T10:27:42.217Z,34.27
2019-01-21T10:30:55.707Z,30.37
2019-01-21T10:34:04.558Z,33.33
2019-01-21T10:37:17.850Z,33.87
2019-01-21T10:40:23.459Z,34.47
2019-01-21T10:43:37.282Z,34.30
2019-01-21T10:46:18.935Z,33.17
2019-01-21T10:49:32.359Z,33.23
2019-01-21T10:52:37.961Z,30.83
2019-01-21T10:55:36.974Z,30.23
2019-01-21T10:58:16.594Z,29.27
2019-01-21T11:01:36.072Z,28.83
2019-01-21T11:04:52.298Z,28.37
2019-01-21T11:08:07.986Z,26.10
2019-01-21T11:11:19.302Z,26.63
2019-01-21T11:14:43.504Z,26.73
2019-01-21T11:17:58.259Z,28.40
2019-01-21T11:21:07.752Z,28.07
2019-01-21T11:24:10.189Z,28.47
2019-01-21T11:27:15.755Z,31.07
2019-01-21T11:30:24.763Z,29.20
2019-01-21T11:33:13.738Z,28.93
2019-01-21T11:36:25.889Z,29.47
2019-01-21T11:39:12.011Z,30.60
2019-01-21T11:42:17.495Z,28.23
2019-01-21T11:45:08.670Z,28.40
2019-01-21T11:48:14.038Z,24.17
2019-01-21T11:51:30.320Z,28.40
2019-01-21T11:54:08.735Z,25.40
2019-01-21T11:56:59.996Z,25.73
2019-01-21T11:59:56.073Z,25.37
2019-01-21T12:02:57.338Z,24.87
2019-01-21T12:05:44.252Z,25.07
2019-01-21T12:08:42.227Z,27.27
2019-01-21T12:11:52.672Z,26.73
2019-01-21T12:15:03.264Z,25.17
2019-01-21T12:17:56.193Z,25.67
2019-01-21T12:21:11.877Z,25.63
2019-01-21T12:24:12.434Z,25.17
2019-01-21T12:27:16.557Z,24.50
2019-01-21T12:30:20.206Z,22.73
2019-01-21T12:34:01.271Z,24.87
2019-01-21T12:37:20.611Z,23.07
2019-01-21T12:40:18.909Z,23.00
2019-01-21T12:43:04.872Z,23.43
2019-01-21T12:46:05.265Z,24.10
2019-01-21T12:48:46.189Z,24.57
2019-01-21T12:51:49.647Z,25.47
2019-01-21T12:54:54.510Z,24.93
2019-01-21T12:58:13.287Z,28.87
2019-01-21T13:01:20.739Z,23.37
2019-01-21T13:04:21.110Z,26.30
2019-01-21T13:07:52.650Z,26.13
2019-01-21T13:10:50.118Z,26.17
2019-01-21T13:14:06.503Z,26.90
2019-01-21T13:17:07.587Z,24.00
2019-01-21T13:20:12.643Z,25.90
2019-01-21T13:23:13.710Z,25.67
2019-01-21T13:26:19.734Z,26.60
2019-01-21T13:29:16.323Z,25.90
2019-01-21T13:32:09.563Z,25.40
2019-01-21T13:35:04.695Z,25.63
2019-01-21T13:38:09.507Z,26.17
2019-01-21T13:41:21.422Z,24.97
2019-01-21T13:44:12.809Z,24.03
2019-01-21T13:47:15.928Z,24.60
2019-01-21T13:49:59.645Z,23.63
2019-01-21T13:53:22.424Z,23.40
2019-01-21T13:56:29.567Z,23.30
2019-01-21T13:59:37.012Z,22.43
2019-01-21T14:02:23.445Z,23.67
2019-01-21T14:05:33.619Z,25.00
2019-01-21T14:08:37.354Z,24.07
2019-01-21T14:11:44.232Z,23.27
2019-01-21T14:15:01.367Z,24.60
2019-01-21T14:17:57.637Z,23.13
2019-01-21T14:20:43.716Z,23.63
2019-01-21T14:23:36.942Z,26.90
2019-01-21T14:26:34.716Z,27.97
2019-01-21T14:29:42.070Z,27.23
2019-01-21T14:32:46.456Z,26.83
2019-01-21T14:36:11.933Z,26.97
2019-01-21T14:39:23.988Z,26.67
2019-01-21T14:42:58.901Z,27.37
2019-01-21T14:45:54.963Z,26.83
2019-01-21T14:48:54.453Z,28.10
2019-01-21T14:51:59.341Z,29.07
2019-01-21T14:55:04.417Z,29.13
2019-01-21T14:58:17.154Z,29.37
2019-01-21T15:01:33.388Z,31.00
2019-01-21T15:04:44.959Z,28.57
2019-01-21T15:07:42.829Z,30.07
2019-01-21T15:10:53.654Z,30.07
2019-01-21T15:13:43.982Z,31.93
2019-01-21T15:16:42.184Z,30.30
2019-01-21T15:19:24.960Z,31.97
2019-01-21T15:22:20.795Z,30.67
2019-01-21T15:25:32.638Z,30.33
2019-01-21T15:28:54.348Z,31.90
2019-01-21T15:31:58.650Z,31.43
2019-01-21T15:34:52.467Z,31.87
2019-01-21T15:38:03.436Z,33.60
2019-01-21T15:40:59.224Z,30.83
2019-01-21T15:43:43.659Z,31.17
2019-01-21T15:46:52.215Z,31.63
2019-01-21T15:50:02.839Z,32.43
2019-01-21T15:53:03.298Z,30.83
2019-01-21T15:55:46.039Z,33.03
2019-01-21T15:58:26.339Z,31.57
2019-01-21T16:01:19.458Z,32.80
2019-01-21T16:03:58.813Z,37.30
2019-01-21T16:07:05.490Z,37.80
2019-01-21T16:10:10.639Z,34.20
2019-01-21T16:13:11.007Z,31.10
2019-01-21T16:16:29.191Z,31.70
2019-01-21T16:19:25.187Z,29.90
2019-01-21T16:22:44.866Z,29.63
2019-01-21T16:25:20.552Z,30.27
2019-01-21T16:28:26.862Z,31.30
2019-01-21T16:31:06.950Z,30.83
2019-01-21T16:34:28.101Z,29.10
2019-01-21T16:37:16.120Z,27.50
2019-01-21T16:40:01.371Z,28.90
2019-01-21T16:42:29.176Z,29.50
2019-01-21T16:44:58.453Z,30.83
2019-01-21T16:47:27.696Z,29.83
2019-01-21T16:49:57.159Z,30.07
2019-01-21T16:52:26.418Z,29.10
2019-01-21T16:54:55.587Z,30.77
2019-01-21T16:57:24.858Z,30.27
2019-01-21T16:59:54.091Z,31.53
2019-01-21T17:02:23.363Z,33.03
2019-01-21T17:04:52.815Z,35.80
2019-01-21T17:07:22.082Z,32.00
2019-01-21T17:09:51.353Z,30.17
2019-01-21T17:12:20.615Z,29.80
2019-01-21T17:14:57.219Z,38.07
2019-01-21T17:17:20.848Z,28.73
2019-01-21T17:19:50.104Z,35.43
2019-01-21T17:22:19.374Z,59.70
2019-01-21T17:24:48.617Z,41.67
2019-01-21T17:27:17.807Z,33.33
2019-01-21T17:29:46.963Z,34.47
2019-01-21T17:32:16.229Z,30.43
2019-01-21T17:34:45.462Z,27.80
2019-01-21T17:37:14.843Z,28.40
2019-01-21T17:39:44.151Z,28.10
2019-01-21T17:42:13.348Z,28.87
2019-01-21T17:44:42.609Z,27.97
2019-01-21T17:47:11.954Z,27.93
2019-01-21T17:49:41.141Z,27.33
2019-01-21T17:52:10.422Z,26.70
2019-01-21T17:54:39.667Z,29.30
2019-01-21T17:57:08.979Z,27.43
2019-01-21T17:59:38.145Z,27.40
2019-01-21T18:02:07.657Z,27.47
2019-01-21T18:04:37.051Z,28.17
2019-01-21T18:07:06.286Z,26.53
2019-01-21T18:09:35.554Z,27.13
2019-01-21T18:12:04.777Z,27.73
2019-01-21T18:14:34.037Z,26.73
2019-01-21T18:17:03.282Z,26.43
2019-01-21T18:19:32.602Z,26.17
2019-01-21T18:22:01.974Z,27.57
2019-01-21T18:24:31.172Z,28.00
2019-01-21T18:27:00.397Z,27.40
2019-01-21T18:29:29.656Z,26.53
2019-01-21T18:31:58.904Z,28.17
2019-01-21T18:34:28.167Z,28.63
2019-01-21T18:36:57.554Z,26.83
2019-01-21T18:39:26.814Z,28.40
2019-01-21T18:41:56.063Z,28.67
2019-01-21T18:44:25.366Z,29.17
2019-01-21T18:46:54.695Z,30.37
2019-01-21T18:49:23.986Z,30.20
2019-01-21T18:51:53.231Z,30.10
2019-01-21T18:54:22.487Z,28.73
2019-01-21T18:56:51.651Z,28.90
2019-01-21T18:59:20.942Z,28.07
2019-01-21T19:01:50.114Z,30.20
2019-01-21T19:04:19.374Z,31.93
2019-01-21T19:06:48.723Z,29.37
2019-01-21T19:09:18.000Z,30.83
2019-01-21T19:11:47.309Z,27.93
2019-01-21T19:14:16.591Z,28.33
2019-01-21T19:16:45.749Z,27.63
2019-01-21T19:19:14.970Z,28.47
2019-01-21T19:21:44.247Z,29.63
2019-01-21T19:24:13.512Z,30.60
2019-01-21T19:26:42.752Z,30.90
2019-01-21T19:29:12.017Z,26.77
2019-01-21T19:31:41.258Z,29.47
2019-01-21T19:34:10.463Z,27.57
2019-01-21T19:36:39.631Z,27.83
2019-01-21T19:39:09.462Z,30.57
2019-01-21T19:41:38.695Z,28.17
2019-01-21T19:44:08.571Z,30.73
2019-01-21T19:46:43.936Z,28.27
2019-01-21T19:49:09.130Z,29.50
2019-01-21T19:51:38.398Z,26.43
2019-01-21T19:54:07.682Z,28.20
2019-01-21T19:56:36.999Z,28.73
2019-01-21T19:59:06.259Z,31.07
2019-01-21T20:01:35.527Z,30.07
2019-01-21T20:04:04.970Z,30.03
2019-01-21T20:06:34.226Z,31.67
2019-01-21T20:09:04.773Z,30.47
2019-01-21T20:11:34.876Z,31.00
2019-01-21T20:14:04.559Z,31.90
2019-01-21T20:16:33.831Z,30.40
2019-01-21T20:19:03.070Z,30.63
2019-01-21T20:21:32.329Z,30.97
2019-01-21T20:24:01.574Z,27.57
2019-01-21T20:26:30.825Z,30.80
2019-01-21T20:28:59.995Z,31.70
2019-01-21T20:31:29.364Z,33.43
2019-01-21T20:33:58.604Z,32.10
2019-01-21T20:36:27.879Z,33.80
2019-01-21T20:38:57.110Z,32.33
2019-01-21T20:41:26.298Z,32.80
2019-01-21T20:43:55.541Z,32.57
2019-01-21T20:46:24.747Z,34.13
2019-01-21T20:48:54.017Z,31.37
2019-01-21T20:51:23.212Z,30.73
2019-01-21T20:53:52.453Z,32.57
2019-01-21T20:56:21.728Z,53.53
2019-01-21T20:58:50.972Z,38.67
2019-01-21T21:01:20.160Z,31.47
2019-01-21T21:03:49.432Z,32.13
2019-01-21T21:06:18.740Z,32.33
2019-01-21T21:08:48.005Z,31.90
2019-01-21T21:11:17.272Z,29.70
2019-01-21T21:13:46.538Z,31.13
2019-01-21T21:16:15.741Z,33.67
2019-01-21T21:18:45.059Z,33.53
2019-01-21T21:21:14.325Z,34.13
2019-01-21T21:23:43.523Z,31.07
2019-01-21T21:26:12.786Z,31.93
2019-01-21T21:28:42.104Z,33.60
2019-01-21T21:31:11.362Z,33.17
2019-01-21T21:33:40.595Z,31.27
2019-01-21T21:36:09.940Z,31.37
2019-01-21T21:38:39.255Z,30.87
2019-01-21T21:41:08.544Z,30.30
2019-01-21T21:43:37.854Z,31.43
2019-01-21T21:46:07.194Z,30.23
2019-01-21T21:48:36.539Z,31.97
2019-01-21T21:51:05.773Z,29.77
2019-01-21T21:53:35.146Z,31.17
2019-01-21T21:56:04.476Z,29.67
2019-01-21T21:58:33.807Z,29.93
2019-01-21T22:01:03.126Z,30.57
2019-01-21T22:03:32.433Z,28.57
2019-01-21T22:06:01.846Z,30.77
2019-01-21T22:08:31.183Z,31.33
2019-01-21T22:11:00.557Z,31.80
2019-01-21T22:13:29.903Z,31.57
2019-01-21T22:15:59.211Z,34.87
2019-01-21T22:18:28.868Z,33.43
2019-01-21T22:20:58.181Z,32.63
2019-01-21T22:23:27.514Z,29.50
2019-01-21T22:25:56.677Z,28.57
2019-01-21T22:28:26.013Z,30.40
2019-01-21T22:30:55.325Z,29.83
2019-01-21T22:33:24.519Z,27.80
2019-01-21T22:35:53.849Z,29.00
2019-01-21T22:38:23.183Z,28.10
2019-01-21T22:40:52.499Z,28.70
2019-01-21T22:43:21.758Z,27.10
2019-01-21T22:45:51.080Z,28.13
2019-01-21T22:48:20.344Z,27.17
2019-01-21T22:50:49.688Z,28.13
2019-01-21T22:53:19.014Z,28.63
2019-01-21T22:55:48.250Z,28.67
2019-01-21T22:58:17.619Z,28.23
2019-01-21T23:01:16.771Z,29.83
2019-01-21T23:03:46.129Z,27.83
2019-01-21T23:06:15.756Z,28.20
2019-01-21T23:08:45.019Z,27.60
2019-01-21T23:11:14.355Z,28.83
2019-01-21T23:13:43.696Z,28.37
2019-01-21T23:16:13.099Z,28.10
2019-01-21T23:18:42.455Z,26.67
2019-01-21T23:21:11.771Z,27.77
2019-01-21T23:23:41.032Z,26.40
2019-01-21T23:26:10.354Z,28.23
2019-01-21T23:28:39.682Z,28.10
2019-01-21T23:31:08.964Z,27.37
2019-01-21T23:33:38.218Z,27.17
2019-01-21T23:36:07.378Z,27.73
2019-01-21T23:38:36.710Z,26.23
2019-01-21T23:41:05.978Z,27.13
2019-01-21T23:43:35.457Z,29.87
2019-01-21T23:46:04.681Z,29.27
2019-01-21T23:48:33.994Z,27.47
2019-01-21T23:51:03.341Z,28.00
2019-01-21T23:53:32.627Z,28.70
2019-01-21T23:56:01.973Z,27.60
2019-01-21T23:58:31.251Z,26.90
